createdAt,value
2022-11-29T00:00:52.846Z,101355.41
2022-11-29T00:03:26.257Z,101348.80
2022-11-29T00:06:01.037Z,101343.48
2022-11-29T00:08:34.096Z,101342.19
2022-11-29T00:11:17.910Z,101346.05
2022-11-29T00:13:50.766Z,101351.76
2022-11-29T00:16:23.366Z,101343.09
2022-11-29T00:18:55.920Z,101346.22
2022-11-29T00:21:28.787Z,101330.05
2022-11-29T00:24:01.845Z,101338.72
2022-11-29T00:26:34.648Z,101343.31
2022-11-29T00:29:07.871Z,101342.91
2022-11-29T00:31:40.740Z,101334.03
2022-11-29T00:34:14.457Z,101334.97
2022-11-29T00:36:47.188Z,101337.16
2022-11-29T00:39:19.914Z,101336.27
2022-11-29T00:41:52.552Z,101332.75
2022-11-29T00:44:25.432Z,101324.29
2022-11-29T00:46:58.425Z,101326.65
2022-11-29T00:49:31.031Z,101322.95
2022-11-29T00:52:03.592Z,101323.89
2022-11-29T00:54:36.345Z,101328.10
2022-11-29T00:57:08.997Z,101328.32
2022-11-29T00:59:41.657Z,101318.97
2022-11-29T01:02:14.426Z,101325.84
2022-11-29T01:04:47.371Z,101321.80
2022-11-29T01:07:20.349Z,101320.88
2022-11-29T01:09:53.179Z,101320.86
2022-11-29T01:12:26.082Z,101315.33
2022-11-29T01:15:00.537Z,101315.66
2022-11-29T01:17:35.502Z,101317.85
2022-11-29T01:20:11.556Z,101316.90
2022-11-29T01:22:44.792Z,101314.33
2022-11-29T01:25:19.591Z,101307.50
2022-11-29T01:27:52.639Z,101310.24
2022-11-29T01:30:26.147Z,101306.21
2022-11-29T01:32:59.246Z,101310.63
2022-11-29T01:35:31.926Z,101309.56
2022-11-29T01:38:04.556Z,101306.43
2022-11-29T01:40:37.313Z,101304.59
2022-11-29T01:43:19.951Z,101312.70
2022-11-29T01:45:53.209Z,101308.16
2022-11-29T01:48:32.090Z,101311.80
2022-11-29T01:51:04.874Z,101306.27
2022-11-29T01:53:37.503Z,101304.59
2022-11-29T01:56:10.316Z,101303.34
2022-11-29T01:58:44.873Z,101305.92
2022-11-29T02:01:17.946Z,101307.05
2022-11-29T02:03:51.067Z,101310.00
2022-11-29T02:06:24.615Z,101310.91
2022-11-29T02:08:57.766Z,101315.49
2022-11-29T02:11:57.950Z,101315.89
2022-11-29T02:14:58.640Z,101310.23
2022-11-29T02:17:53.992Z,101313.91
2022-11-29T02:20:33.944Z,101324.91
2022-11-29T02:23:36.555Z,101325.84
2022-11-29T02:26:16.662Z,101320.69
2022-11-29T02:29:37.439Z,101321.37
2022-11-29T02:32:47.387Z,101331.84
2022-11-29T02:35:51.385Z,101326.17
2022-11-29T02:38:59.084Z,101332.97
2022-11-29T02:42:13.745Z,101331.33
2022-11-29T02:45:22.463Z,101337.38
2022-11-29T02:48:05.388Z,101324.67
2022-11-29T02:51:12.879Z,101327.42
2022-11-29T02:54:11.932Z,101328.70
2022-11-29T02:57:09.834Z,101329.44
2022-11-29T03:00:11.832Z,101332.92
2022-11-29T03:03:13.231Z,101340.12
2022-11-29T03:06:07.184Z,101336.61
2022-11-29T03:09:10.863Z,101330.04
2022-11-29T03:11:55.233Z,101338.11
2022-11-29T03:14:47.763Z,101349.19
2022-11-29T03:17:46.046Z,101346.63
2022-11-29T03:20:26.611Z,101338.94
2022-11-29T03:23:30.059Z,101350.73
2022-11-29T03:26:29.077Z,101359.07
2022-11-29T03:29:30.327Z,101363.88
2022-11-29T03:32:13.136Z,101364.61
2022-11-29T03:35:02.737Z,101367.56
2022-11-29T03:37:58.058Z,101369.55
2022-11-29T03:40:41.877Z,101373.96
2022-11-29T03:43:33.693Z,101369.37
2022-11-29T03:46:25.952Z,101371.05
2022-11-29T03:49:06.155Z,101377.31
2022-11-29T03:52:18.392Z,101380.27
2022-11-29T03:55:30.649Z,101376.23
2022-11-29T03:58:23.081Z,101370.70
2022-11-29T04:01:17.020Z,101370.88
2022-11-29T04:04:22.775Z,101376.23
2022-11-29T04:07:24.420Z,101378.59
2022-11-29T04:10:36.312Z,101382.28
2022-11-29T04:13:30.603Z,101376.23
2022-11-29T04:16:58.367Z,101377.18
2022-11-29T04:19:56.773Z,101377.56
2022-11-29T04:23:09.005Z,101384.08
2022-11-29T04:25:52.043Z,101390.94
2022-11-29T04:28:48.845Z,101391.73
2022-11-29T04:31:59.890Z,101388.81
2022-11-29T04:35:05.787Z,101394.20
2022-11-29T04:38:03.495Z,101387.45
2022-11-29T04:40:56.145Z,101385.81
2022-11-29T04:44:17.248Z,101385.15
2022-11-29T04:47:32.566Z,101395.63
2022-11-29T04:50:24.743Z,101393.27
2022-11-29T04:53:15.961Z,101401.20
2022-11-29T04:56:05.466Z,101399.59
2022-11-29T04:59:17.720Z,101396.14
2022-11-29T05:02:34.775Z,101407.88
2022-11-29T05:05:18.089Z,101412.13
2022-11-29T05:08:35.627Z,101418.20
2022-11-29T05:11:32.032Z,101423.89
2022-11-29T05:14:29.488Z,101423.00
2022-11-29T05:17:49.494Z,101435.31
2022-11-29T05:20:44.581Z,101432.91
2022-11-29T05:23:50.695Z,101440.81
2022-11-29T05:26:33.720Z,101442.83
2022-11-29T05:29:29.334Z,101446.68
2022-11-29T05:32:25.026Z,101446.16
2022-11-29T05:35:22.073Z,101446.52
2022-11-29T05:38:04.578Z,101449.84
2022-11-29T05:41:20.394Z,101452.77
2022-11-29T05:44:31.234Z,101454.42
2022-11-29T05:47:11.410Z,101454.98
2022-11-29T05:50:09.969Z,101456.80
2022-11-29T05:53:26.915Z,101457.90
2022-11-29T05:56:29.265Z,101459.38
2022-11-29T05:59:18.966Z,101465.42
2022-11-29T06:02:23.741Z,101470.02
2022-11-29T06:05:38.616Z,101476.98
2022-11-29T06:08:18.652Z,101472.95
2022-11-29T06:11:08.989Z,101480.08
2022-11-29T06:14:13.686Z,101478.80
2022-11-29T06:17:15.227Z,101475.32
2022-11-29T06:20:24.382Z,101469.98
2022-11-29T06:23:31.984Z,101467.05
2022-11-29T06:26:34.773Z,101467.41
2022-11-29T06:29:45.385Z,101471.45
2022-11-29T06:32:46.942Z,101466.88
2022-11-29T06:35:46.580Z,101466.47
2022-11-29T06:38:27.520Z,101465.36
2022-11-29T06:41:02.551Z,101475.09
2022-11-29T06:43:36.324Z,101478.03
2022-11-29T06:46:37.578Z,101476.75
2022-11-29T06:49:29.107Z,101470.84
2022-11-29T06:52:29.280Z,101470.84
2022-11-29T06:55:18.166Z,101469.19
2022-11-29T06:58:10.545Z,101471.22
2022-11-29T07:00:50.474Z,101459.80
2022-11-29T07:04:02.362Z,101467.67
2022-11-29T07:06:36.947Z,101461.42
2022-11-29T07:09:22.021Z,101467.13
2022-11-29T07:11:55.598Z,101464.72
2022-11-29T07:14:29.221Z,101461.42
2022-11-29T07:17:09.528Z,101456.28
2022-11-29T07:19:58.812Z,101458.67
2022-11-29T07:22:52.543Z,101454.64
2022-11-29T07:26:07.611Z,101455.91
2022-11-29T07:28:51.060Z,101458.66
2022-11-29T07:32:00.258Z,101454.97
2022-11-29T07:34:57.186Z,101459.77
2022-11-29T07:37:40.354Z,101461.95
2022-11-29T07:40:26.721Z,101470.41
2022-11-29T07:43:25.642Z,101460.83
2022-11-29T07:45:59.066Z,101455.69
2022-11-29T07:48:32.032Z,101460.84
2022-11-29T07:51:04.914Z,101462.06
2022-11-29T07:53:44.610Z,101456.91
2022-11-29T07:56:17.208Z,101458.31
2022-11-29T07:58:49.996Z,101454.97
2022-11-29T08:01:23.046Z,101448.34
2022-11-29T08:03:55.725Z,101443.16
2022-11-29T08:06:29.181Z,101444.41
2022-11-29T08:09:03.215Z,101431.48
2022-11-29T08:11:36.030Z,101436.07
2022-11-29T08:14:09.023Z,101437.70
2022-11-29T08:16:41.742Z,101431.23
2022-11-29T08:19:14.617Z,101429.56
2022-11-29T08:21:48.601Z,101420.34
2022-11-29T08:24:21.432Z,101420.13
2022-11-29T08:26:54.791Z,101422.11
2022-11-29T08:29:27.583Z,101414.52
2022-11-29T08:32:00.255Z,101412.63
2022-11-29T08:34:33.481Z,101403.22
2022-11-29T08:37:06.529Z,101411.81
2022-11-29T08:39:39.323Z,101405.71
2022-11-29T08:42:12.337Z,101393.39
2022-11-29T08:44:45.712Z,101392.09
2022-11-29T08:47:37.151Z,101384.38
2022-11-29T08:50:16.846Z,101387.50
2022-11-29T08:53:09.212Z,101377.70
2022-11-29T08:55:47.007Z,101382.03
2022-11-29T08:58:21.339Z,101360.59
2022-11-29T09:00:55.236Z,101362.16
2022-11-29T09:03:35.286Z,101356.61
2022-11-29T09:06:16.921Z,101359.52
2022-11-29T09:08:49.588Z,101355.65
2022-11-29T09:11:23.699Z,101351.45
2022-11-29T09:14:01.401Z,101358.11
2022-11-29T09:16:39.042Z,101355.53
2022-11-29T09:19:14.756Z,101346.87
2022-11-29T09:21:47.558Z,101344.23
2022-11-29T09:24:20.842Z,101345.84
2022-11-29T09:26:53.632Z,101343.78
2022-11-29T09:29:26.227Z,101340.54
2022-11-29T09:31:59.066Z,101341.14
2022-11-29T09:34:31.751Z,101342.43
2022-11-29T09:37:05.729Z,101339.86
2022-11-29T09:39:40.504Z,101347.80
2022-11-29T09:42:45.458Z,101349.39
2022-11-29T09:45:21.568Z,101351.78
2022-11-29T09:48:02.475Z,101349.16
2022-11-29T09:50:42.890Z,101346.75
2022-11-29T09:53:32.085Z,101342.66
2022-11-29T09:56:41.549Z,101344.28
2022-11-29T09:59:23.027Z,101341.30
2022-11-29T10:02:02.917Z,101344.64
2022-11-29T10:04:41.802Z,101333.15
2022-11-29T10:07:40.580Z,101341.03
2022-11-29T10:10:32.840Z,101345.06
2022-11-29T10:13:26.974Z,101342.09
2022-11-29T10:16:03.742Z,101345.58
2022-11-29T10:18:59.366Z,101341.70
2022-11-29T10:21:37.878Z,101338.72
2022-11-29T10:24:18.544Z,101337.92
2022-11-29T10:26:51.146Z,101336.80
2022-11-29T10:29:24.874Z,101324.41
2022-11-29T10:31:59.629Z,101333.25
2022-11-29T10:34:33.458Z,101330.06
2022-11-29T10:37:06.548Z,101327.30
2022-11-29T10:39:57.571Z,101325.45
2022-11-29T10:42:49.342Z,101330.29
2022-11-29T10:45:39.228Z,101326.83
2022-11-29T10:48:21.096Z,101322.64
2022-11-29T10:50:55.058Z,101320.28
2022-11-29T10:53:36.154Z,101315.51
2022-11-29T10:56:19.578Z,101315.28
2022-11-29T10:59:01.377Z,101317.29
2022-11-29T11:01:41.886Z,101321.26
2022-11-29T11:04:36.389Z,101319.72
2022-11-29T11:07:10.964Z,101331.61
2022-11-29T11:09:52.437Z,101315.40
2022-11-29T11:12:31.040Z,101321.27
2022-11-29T11:15:29.126Z,101316.62
2022-11-29T11:18:08.025Z,101317.11
2022-11-29T11:20:44.583Z,101318.05
2022-11-29T11:23:37.557Z,101321.92
2022-11-29T11:26:12.960Z,101326.69
2022-11-29T11:29:03.052Z,101329.98
2022-11-29T11:31:39.751Z,101320.73
2022-11-29T11:34:40.570Z,101328.88
2022-11-29T11:37:27.098Z,101332.34
2022-11-29T11:40:02.838Z,101329.69
2022-11-29T11:42:40.652Z,101318.94
2022-11-29T11:45:18.207Z,101324.20
2022-11-29T11:47:58.320Z,101334.84
2022-11-29T11:50:35.830Z,101336.13
2022-11-29T11:53:25.233Z,101330.81
2022-11-29T11:56:04.916Z,101331.16
2022-11-29T11:58:54.508Z,101340.59
2022-11-29T12:01:32.123Z,101335.03
2022-11-29T12:04:24.324Z,101335.00
2022-11-29T12:07:51.900Z,101336.45
2022-11-29T12:10:07.010Z,101330.58
2022-11-29T12:12:42.869Z,101327.45
2022-11-29T12:15:25.669Z,101330.03
2022-11-29T12:18:14.482Z,101331.55
2022-11-29T12:21:03.694Z,101333.07
2022-11-29T12:24:05.178Z,101339.75
2022-11-29T12:26:59.180Z,101338.30
2022-11-29T12:29:20.561Z,101341.08
2022-11-29T12:32:28.881Z,101344.43
2022-11-29T12:35:06.367Z,101339.11
2022-11-29T12:37:56.609Z,101345.75
2022-11-29T12:41:05.826Z,101345.02
2022-11-29T12:44:05.537Z,101343.40
2022-11-29T12:46:38.816Z,101348.56
2022-11-29T12:49:33.815Z,101348.40
2022-11-29T12:52:14.140Z,101344.37
2022-11-29T12:55:27.846Z,101349.20
2022-11-29T12:58:34.853Z,101354.98
2022-11-29T13:01:36.731Z,101348.20
2022-11-29T13:04:26.382Z,101349.52
2022-11-29T13:07:07.428Z,101346.84
2022-11-29T13:10:03.795Z,101354.81
2022-11-29T13:12:52.940Z,101348.22
2022-11-29T13:15:33.560Z,101349.22
2022-11-29T13:18:17.613Z,101344.86
2022-11-29T13:21:03.049Z,101342.86
2022-11-29T13:26:18.298Z,101343.88
2022-11-29T13:28:51.803Z,101344.28
2022-11-29T13:31:26.330Z,101343.05
2022-11-29T13:34:24.918Z,101335.73
2022-11-29T13:37:19.136Z,101337.08
2022-11-29T13:40:04.284Z,101342.64
2022-11-29T13:42:47.003Z,101345.27
2022-11-29T13:45:36.894Z,101334.69
2022-11-29T13:48:31.726Z,101333.13
2022-11-29T13:51:34.659Z,101340.70
2022-11-29T13:54:28.326Z,101336.56
2022-11-29T13:57:11.811Z,101339.58
2022-11-29T13:59:47.690Z,101340.53
2022-11-29T14:02:32.055Z,101343.28
2022-11-29T14:05:04.073Z,101345.70
2022-11-29T14:07:37.078Z,101352.73
2022-11-29T14:10:28.431Z,101350.56
2022-11-29T14:12:57.215Z,101359.63
2022-11-29T14:15:33.469Z,101366.63
2022-11-29T14:18:09.214Z,101370.55
2022-11-29T14:20:49.604Z,101360.80
2022-11-29T14:23:43.728Z,101366.00
2022-11-29T14:26:28.243Z,101368.02
2022-11-29T14:28:59.674Z,101362.92
2022-11-29T14:31:52.142Z,101360.17
2022-11-29T14:34:29.218Z,101359.10
2022-11-29T14:37:09.463Z,101370.73
2022-11-29T14:39:48.357Z,101371.12
2022-11-29T14:42:24.100Z,101377.95
2022-11-29T14:45:01.849Z,101378.73
2022-11-29T14:47:48.447Z,101381.90
2022-11-29T14:50:40.659Z,101385.20
2022-11-29T14:53:35.348Z,101378.81
2022-11-29T14:56:35.507Z,101385.45
2022-11-29T14:59:53.776Z,101401.67
2022-11-29T15:02:42.797Z,101389.02
2022-11-29T15:05:22.815Z,101389.05
2022-11-29T15:08:21.264Z,101385.02
2022-11-29T15:11:06.982Z,101381.92
2022-11-29T15:14:07.742Z,101385.27
2022-11-29T15:17:09.536Z,101388.78
2022-11-29T15:19:52.809Z,101387.53
2022-11-29T15:22:32.145Z,101378.17
2022-11-29T15:25:21.507Z,101376.16
2022-11-29T15:28:01.332Z,101379.33
2022-11-29T15:30:38.557Z,101380.09
2022-11-29T15:33:23.992Z,101386.34
2022-11-29T15:36:00.535Z,101389.50
2022-11-29T15:38:43.747Z,101390.44
2022-11-29T15:41:28.909Z,101384.00
2022-11-29T15:44:07.714Z,101395.05
2022-11-29T15:46:40.483Z,101392.33
2022-11-29T15:49:23.785Z,101391.22
2022-11-29T15:52:06.551Z,101394.55
2022-11-29T15:54:46.025Z,101393.82
2022-11-29T15:57:28.594Z,101394.75
2022-11-29T16:00:05.605Z,101396.80
2022-11-29T16:02:41.906Z,101404.91
2022-11-29T16:05:28.327Z,101406.39
2022-11-29T16:08:05.209Z,101419.27
2022-11-29T16:10:46.571Z,101423.30
2022-11-29T16:13:38.807Z,101426.63
2022-11-29T16:16:21.906Z,101441.11
2022-11-29T16:18:54.649Z,101437.25
2022-11-29T16:21:33.137Z,101439.84
2022-11-29T16:24:22.142Z,101446.85
2022-11-29T16:26:55.334Z,101454.72
2022-11-29T16:29:37.530Z,101457.31
2022-11-29T16:32:31.064Z,101463.38
2022-11-29T16:35:20.497Z,101468.16
2022-11-29T16:37:53.912Z,101461.75
2022-11-29T16:40:32.045Z,101464.34
2022-11-29T16:43:24.225Z,101464.14
2022-11-29T16:46:26.890Z,101470.77
2022-11-29T16:49:02.753Z,101480.47
2022-11-29T16:51:49.185Z,101479.77
2022-11-29T16:54:33.553Z,101477.55
2022-11-29T16:57:07.941Z,101485.27
2022-11-29T16:59:41.372Z,101479.97
2022-11-29T17:02:15.649Z,101479.41
2022-11-29T17:04:47.843Z,101470.78
2022-11-29T17:07:25.851Z,101468.60
2022-11-29T17:09:59.148Z,101466.20
2022-11-29T17:12:31.917Z,101465.66
2022-11-29T17:15:04.822Z,101462.35
2022-11-29T17:17:37.605Z,101468.05
2022-11-29T17:20:12.677Z,101473.55
2022-11-29T17:22:45.409Z,101472.64
2022-11-29T17:25:18.104Z,101476.65
2022-11-29T17:27:51.354Z,101476.28
2022-11-29T17:30:24.140Z,101479.23
2022-11-29T17:32:56.988Z,101480.30
2022-11-29T17:35:30.640Z,101474.27
2022-11-29T17:38:03.452Z,101480.50
2022-11-29T17:40:36.146Z,101477.56
2022-11-29T17:43:09.689Z,101479.75
2022-11-29T17:45:42.456Z,101471.31
2022-11-29T17:48:15.387Z,101479.92
2022-11-29T17:50:47.975Z,101481.36
2022-11-29T17:53:20.799Z,101478.98
2022-11-29T17:55:53.626Z,101482.08
2022-11-29T17:58:26.720Z,101476.42
2022-11-29T18:01:08.014Z,101473.29
2022-11-29T18:03:42.918Z,101473.10
2022-11-29T18:06:22.657Z,101478.57
2022-11-29T18:08:59.695Z,101481.13
2022-11-29T18:11:46.996Z,101470.13
2022-11-29T18:14:16.813Z,101482.38
2022-11-29T18:16:50.343Z,101469.93
2022-11-29T18:19:25.536Z,101469.74
2022-11-29T18:21:58.432Z,101463.14
2022-11-29T18:24:31.172Z,101464.61
2022-11-29T18:27:04.709Z,101454.17
2022-11-29T18:29:46.378Z,101464.77
2022-11-29T18:32:11.927Z,101458.73
2022-11-29T18:34:45.104Z,101463.86
2022-11-29T18:37:32.859Z,101469.70
2022-11-29T18:39:53.136Z,101473.54
2022-11-29T18:42:26.252Z,101473.35
2022-11-29T18:44:59.029Z,101475.53
2022-11-29T18:47:33.314Z,101487.25
2022-11-29T18:50:08.177Z,101471.68
2022-11-29T18:52:41.008Z,101479.19
2022-11-29T18:55:14.007Z,101478.43
2022-11-29T18:57:51.046Z,101477.70
2022-11-29T19:00:24.080Z,101481.55
2022-11-29T19:02:57.752Z,101480.98
2022-11-29T19:05:30.502Z,101476.39
2022-11-29T19:08:03.663Z,101472.35
2022-11-29T19:10:38.970Z,101472.16
2022-11-29T19:13:11.845Z,101461.00
2022-11-29T19:15:44.671Z,101467.41
2022-11-29T19:18:17.655Z,101469.59
2022-11-29T19:20:51.397Z,101465.55
2022-11-29T19:23:24.216Z,101466.30
2022-11-29T19:25:56.947Z,101462.98
2022-11-29T19:28:29.642Z,101460.04
2022-11-29T19:31:02.518Z,101467.35
2022-11-29T19:33:36.671Z,101462.03
2022-11-29T19:36:12.102Z,101462.41
2022-11-29T19:38:48.866Z,101457.09
2022-11-29T19:41:29.654Z,101451.59
2022-11-29T19:44:06.350Z,101455.43
2022-11-29T19:46:42.953Z,101451.78
2022-11-29T19:49:15.801Z,101452.69
2022-11-29T19:51:48.865Z,101451.41
2022-11-29T19:54:22.369Z,101458.19
2022-11-29T19:56:56.055Z,101452.50
2022-11-29T19:59:30.224Z,101447.18
2022-11-29T20:02:03.236Z,101444.61
2022-11-29T20:04:35.913Z,101454.85
2022-11-29T20:07:09.346Z,101455.61
2022-11-29T20:09:42.574Z,101460.73
2022-11-29T20:12:15.451Z,101462.73
2022-11-29T20:14:48.237Z,101467.14
2022-11-29T20:17:21.282Z,101467.86
2022-11-29T20:19:54.051Z,101483.59
2022-11-29T20:22:26.902Z,101472.41
2022-11-29T20:24:59.796Z,101465.48
2022-11-29T20:27:33.789Z,101474.44
2022-11-29T20:30:09.930Z,101456.70
2022-11-29T20:32:43.010Z,101451.39
2022-11-29T20:35:17.575Z,101458.50
2022-11-29T20:37:55.329Z,101464.91
2022-11-29T20:40:52.719Z,101464.39
2022-11-29T20:43:59.094Z,101461.06
2022-11-29T20:46:33.446Z,101459.78
2022-11-29T20:49:06.712Z,101474.38
2022-11-29T20:51:56.176Z,101461.05
2022-11-29T20:54:30.016Z,101463.04
2022-11-29T20:57:02.909Z,101456.11
2022-11-29T20:59:35.883Z,101464.33
2022-11-29T21:02:08.993Z,101460.16
2022-11-29T21:04:41.859Z,101459.02
2022-11-29T21:07:14.638Z,101459.39
2022-11-29T21:09:48.548Z,101463.62
2022-11-29T21:12:21.843Z,101460.48
2022-11-29T21:14:54.959Z,101471.50
2022-11-29T21:17:33.515Z,101469.50
2022-11-29T21:20:03.066Z,101476.09
2022-11-29T21:23:11.811Z,101475.53
2022-11-29T21:26:02.895Z,101473.16
2022-11-29T21:28:40.694Z,101467.48
2022-11-29T21:31:15.316Z,101475.02
2022-11-29T21:33:48.374Z,101475.20
2022-11-29T21:36:21.230Z,101470.42
2022-11-29T21:38:55.400Z,101473.36
2022-11-29T21:41:28.520Z,101474.08
2022-11-29T21:44:08.848Z,101469.33
2022-11-29T21:46:36.543Z,101467.33
2022-11-29T21:49:09.905Z,101467.14
2022-11-29T21:51:43.018Z,101459.45
2022-11-29T21:54:15.811Z,101464.73
2022-11-29T21:56:49.010Z,101469.85
2022-11-29T21:59:21.669Z,101472.07
2022-11-29T22:01:55.083Z,101479.95
2022-11-29T22:04:27.958Z,101474.26
2022-11-29T22:07:00.659Z,101464.20
2022-11-29T22:09:35.171Z,101469.12
2022-11-29T22:12:31.978Z,101463.81
2022-11-29T22:14:42.555Z,101467.66
2022-11-29T22:17:15.308Z,101449.91
2022-11-29T22:19:48.036Z,101457.97
2022-11-29T22:22:20.877Z,101458.12
2022-11-29T22:24:53.510Z,101458.49
2022-11-29T22:27:26.770Z,101455.56
2022-11-29T22:29:59.494Z,101454.28
2022-11-29T22:32:32.257Z,101451.38
2022-11-29T22:35:05.170Z,101452.80
2022-11-29T22:37:37.866Z,101453.55
2022-11-29T22:40:10.910Z,101439.28
2022-11-29T22:42:43.756Z,101432.69
2022-11-29T22:45:16.509Z,101434.54
2022-11-29T22:47:49.421Z,101435.07
2022-11-29T22:50:22.006Z,101429.23
2022-11-29T22:52:55.833Z,101423.55
2022-11-29T22:55:28.565Z,101427.05
2022-11-29T22:58:01.649Z,101430.52
2022-11-29T23:00:36.260Z,101434.73
2022-11-29T23:03:08.983Z,101423.35
2022-11-29T23:05:41.750Z,101416.76
2022-11-29T23:08:14.529Z,101418.41
2022-11-29T23:10:58.068Z,101419.32
2022-11-29T23:13:32.490Z,101421.34
2022-11-29T23:16:08.565Z,101419.69
2022-11-29T23:18:42.662Z,101413.09
2022-11-29T23:21:19.991Z,101414.18
2022-11-29T23:23:56.586Z,101413.98
2022-11-29T23:26:39.780Z,101415.59
2022-11-29T23:29:16.867Z,101413.41
2022-11-29T23:31:50.118Z,101412.13
2022-11-29T23:34:23.205Z,101410.47
2022-11-29T23:36:55.797Z,101409.39
2022-11-29T23:39:28.412Z,101408.82
2022-11-29T23:42:01.089Z,101403.51
2022-11-29T23:44:34.463Z,101391.83
2022-11-29T23:47:07.428Z,101385.23
2022-11-29T23:49:40.185Z,101386.33
2022-11-29T23:52:13.714Z,101379.87
2022-11-29T23:54:47.948Z,101387.17
2022-11-29T23:57:20.888Z,101384.99
2022-11-29T23:59:53.921Z,101374.03
